Flight Track Log - Related Links

Times and Time Zones

All times are in EDT time to prevent confusion due to time zone crossing. See the MSR663 flight status page for this flight to view local times or setup timezone preferences in your user account.

Time Position Orientation Groundspeed Altitude Reporting Facility
EDT Latitude Longitude Course Direction KTS MPH feet Rate Location/Type
Sun 05:52:00 PM 28.5839 32.9365 139° Southeast  Level Estimated
Sun 05:53:00 PM 28.4872 33.0306 139° Southeast  Level Estimated
Sun 05:54:00 PM 28.3904 33.1246 139° Southeast  Level Estimated
Sun 05:55:00 PM 28.2936 33.2185 140° Southeast  Level Estimated
Sun 05:56:00 PM 28.1967 33.3121 140° Southeast  Level Estimated
Sun 05:57:00 PM 28.0997 33.4056 140° Southeast  Level Estimated
Sun 05:58:00 PM 28.0027 33.4989 140° Southeast  Level Estimated
Sun 05:59:00 PM 27.9056 33.5921 140° Southeast  Level Estimated
Sun 06:00:00 PM 27.8085 33.6851 140° Southeast  Level Estimated
Sun 06:01:00 PM 27.7112 33.7779 140° Southeast  Level Estimated
Sun 06:02:00 PM 27.6140 33.8705 140° Southeast  Level Estimated
Sun 06:03:00 PM 27.5166 33.9630 140° Southeast  Level Estimated
Sun 06:04:00 PM 27.4193 34.0553 140° Southeast  Level Estimated
Sun 06:05:00 PM 27.3218 34.1475 140° Southeast  Level Estimated
Sun 06:06:00 PM 27.2243 34.2395 140° Southeast  Level Estimated
Sun 06:07:00 PM 27.1267 34.3313 140° Southeast  Level Estimated
Sun 06:08:00 PM 27.0291 34.4230 140° Southeast  Level Estimated
Sun 06:09:00 PM 26.9314 34.5145 140° Southeast  Level Estimated
Sun 06:10:00 PM 26.8337 34.6059 140° Southeast  Level Estimated
Sun 06:11:00 PM 26.7358 34.6971 140° Southeast  Level Estimated
Sun 06:12:00 PM 26.6380 34.7881 140° Southeast  Level Estimated
Sun 06:13:00 PM 26.5400 34.8790 140° Southeast  Level Estimated
Sun 06:14:00 PM 26.4421 34.9697 140° Southeast  Level Estimated
Sun 06:15:00 PM 26.3440 35.0603 140° Southeast  Level Estimated
Sun 06:16:00 PM 26.2459 35.1507 140° Southeast  Level Estimated
Sun 06:17:00 PM 26.1478 35.2410 140° Southeast  Level Estimated
Sun 06:18:00 PM 26.0495 35.3311 140° Southeast  Level Estimated
Sun 06:19:00 PM 25.9513 35.4211 141° Southeast  Level Estimated
Sun 06:20:00 PM 25.8529 35.5109 141° Southeast  Level Estimated
Sun 06:21:00 PM 25.7546 35.6006 141° Southeast  Level Estimated
Sun 06:22:00 PM 25.6561 35.6901 141° Southeast  Level Estimated
Sun 06:23:00 PM 25.5576 35.7795 141° Southeast  Level Estimated
Sun 06:24:00 PM 25.4591 35.8687 141° Southeast  Level Estimated
Sun 06:25:00 PM 25.3605 35.9578 141° Southeast  Level Estimated
Sun 06:26:00 PM 25.2619 36.0467 141° Southeast  Level Estimated
Sun 06:27:00 PM 25.1632 36.1355 141° Southeast  Level Estimated
Sun 06:28:00 PM 25.0644 36.2242 141° Southeast  Level Estimated
Sun 06:29:00 PM 24.9656 36.3127 141° Southeast  Level Estimated
Sun 06:30:00 PM 24.8667 36.4010 141° Southeast  Level Estimated
Sun 06:31:00 PM 24.7678 36.4893 141° Southeast  Level Estimated
Sun 06:32:00 PM 24.6689 36.5773 141° Southeast  Level Estimated
Sun 06:33:00 PM 24.5699 36.6653 141° Southeast  Level Estimated
Sun 06:34:00 PM 24.4708 36.7531 141° Southeast  Level Estimated
Sun 06:35:00 PM 24.3717 36.8407 141° Southeast  Level Estimated
Sun 06:36:00 PM 24.2725 36.9283 141° Southeast  Level Estimated
Sun 06:37:00 PM 24.1733 37.0157 141° Southeast  Level Estimated
Sun 06:38:00 PM 24.0740 37.1029 141° Southeast  Level Estimated
Sun 06:39:00 PM 23.9747 37.1900 141° Southeast  Level Estimated
Sun 06:40:00 PM 23.8753 37.2770 141° Southeast  Level Estimated
Sun 06:41:00 PM 23.7759 37.3639 141° Southeast  Level Estimated
Sun 06:42:00 PM 23.6765 37.4506 141° Southeast  Level Estimated
Sun 06:43:00 PM 23.5770 37.5372 141° Southeast  Level Estimated
Sun 06:44:00 PM 23.4774 37.6236 141° Southeast  Level Estimated
Sun 06:45:00 PM 23.3778 37.7100 141° Southeast  Level Estimated
Sun 06:46:00 PM 23.2781 37.7962 142° Southeast  Level Estimated
Sun 06:47:00 PM 23.1784 37.8823 142° Southeast  Level Estimated
Sun 06:48:00 PM 23.0787 37.9682 142° Southeast  Level Estimated
Sun 06:49:00 PM 22.9789 38.0540 142° Southeast  Level Estimated
Sun 06:50:00 PM 22.8790 38.1397 142° Southeast  Level Estimated
Sun 06:51:00 PM 22.7792 38.2252 142° Southeast  Level Estimated
Sun 06:52:00 PM 22.6792 38.3107 142° Southeast  Level Estimated
Sun 06:53:00 PM 22.5793 38.3960 142° Southeast  Level Estimated
Sun 06:54:00 PM 22.4792 38.4812 142° Southeast  Level Estimated
Sun 06:55:00 PM 22.3792 38.5662 142° Southeast  Level Estimated
Sun 06:56:00 PM 22.2791 38.6512 142° Southeast  Level Estimated
Sun 06:57:00 PM 22.1789 38.7360 142° Southeast  Level Estimated
Sun 06:58:00 PM 22.0787 38.8207 142° Southeast  Level Estimated
Sun 06:59:00 PM 21.9785 38.9053 142° Southeast  Level Estimated
Sun 07:00:00 PM 21.8782 38.9897 142° Southeast  Level Estimated
Sun 07:01:00 PM 21.7778 39.0741 142° Southeast  Level Estimated
Sun 07:02:00 PM 21.6796 39.1565 142° Southeast  Level Estimated
Sun 07:03:00 PM 21.6796 39.1565 317° Northwest  Level Estimated
Sun 07:04:00 PM 21.6796 39.1565 317° Northwest  Level Estimated
Sun 07:05:00 PM 21.6796 39.1565 317° Northwest  Level Estimated
Sun 07:06:00 PM 21.6796 39.1565 317° Northwest  Level Estimated
Sun 07:07:00 PM 21.6796 39.1565 317° Northwest  Level Estimated
Sun 07:08:00 PM 21.6796 39.1565 317° Northwest  Level Estimated
Sun 07:09:00 PM 21.6796 39.1565 317° Northwest  Level Estimated
Sun 07:10:00 PM 21.6796 39.1565 317° Northwest  Level Estimated
Sun 07:11:00 PM 21.6796 39.1565 317° Northwest  Level Estimated
Sun 07:11:12 PM 21.5430 39.1890 317° Northwest 170 196 2,500  Level FlightAware ADS-B
Sun 07:11:27 PM 21.5550 39.1840 339° North 171 197 2,300 -900 Descending FlightAware ADS-B
Sun 07:11:52 PM 21.5730 39.1770 340° North 172 198 1,900 -873 Descending FlightAware ADS-B
Sun 07:12:22 PM 21.5940 39.1680 338° Northwest 171 197 1,500 -655 Descending FlightAware ADS-B
Sun 07:12:47 PM 21.6100 39.1620 341° North 152 175 1,300 -655 Descending FlightAware ADS-B
Sun 07:13:17 PM 21.6250 39.1560 340° North 142 163 900 -686 Descending FlightAware ADS-B
Sun 07:13:22 PM 21.6300 39.1540 340° North 141 162 900 -360 Level FlightAware ADS-B
Sun 07:14:07 PM 21.6540 39.1430 337° Northwest 142 163 600 -400 Descending FlightAware ADS-B
Sun 07:16:00 PM 21.6796 39.1565 26° Northeast  Level Estimated
Sun 07:17:00 PM 21.6796 39.1565 317° Northwest  Level Estimated
Sun 07:18:00 PM 21.6796 39.1565 317° Northwest  Level Estimated

Login

Don't have an account? Register now (free) for customized features, flight alerts, and more!